Pittsburgh, Pennsylvania
Traffic Map
Current Weather Conditions
Pittsburgh, Pennsylvania
Clear
Clear

Feels Like: -4°
Wind Chill: -4° Ceiling: Unl
Heat Index: Visibility: 10mi
Dew Point: Wind: 8mph
Humidity: 70% Direction: 260° (W)
Pressure: 30.36in Gusts: 0mph
Raw Report DataKAGC 310653Z AUTO 26007KT 10SM CLR M13/M18 A3036 RMK AO2 SLP310 T11331178 TSNO
Traffic Incident Summary
Active as of:
Severity:
Category:
InformationThere was an issue retrieving the traffic information for this location. Please try a different location or try again shortly.
Advertisements
Track Severe Weather on mobile